ETHE

Rheine Bentlage Airport

Germany
METAR ETHE 180820Z 13005KT 2500 BR SCT002 BKN003 01/00 Q1020 YLO
Observed Flight Rules
Dec-18 @ 08:20 UTC (34 minutes ago) Instrument Flight Rules
Wind Visibility Clouds Conditions
130° at 5 knots 2,494 meters
  • Scattered at 200' AGL
  • Broken at 300' AGL
  • Mist
Temperatures Readings
Current 1°C / 34°F
Dewpoint 0°C / 32°F
Humidity 93%
Altimeter 30.12" Hg
Pressure 1020 hPa
Elevation 49
METAR ETHE 180820Z 13005KT 2500 BR SCT002 BKN003 01/00 Q1020 YLO
Observed Flight Rules
Dec-18 @ 08:20 UTC
(34 minutes ago)
LIFR
Wind Visibility
130° at 5 knots 2,494 meters
Clouds
  • Scattered at 200' AGL
  • Broken at 300' AGL
Conditions
  • Mist
Temperature Dewpoint
1°C / 34°F 0°C / 32°F
Humidity Altimeter Pressure
93% 30.12" Hg 1020 hPa